createdAt,value
2022-12-31T00:00:10.935Z,26.10
2022-12-31T00:02:38.857Z,24.52
2022-12-31T00:05:10.699Z,21.98
2022-12-31T00:10:06.785Z,22.33
2022-12-31T00:12:34.418Z,23.33
2022-12-31T00:15:02.044Z,26.02
2022-12-31T00:17:29.602Z,25.85
2022-12-31T00:19:57.121Z,17.90
2022-12-31T00:22:24.711Z,19.90
2022-12-31T00:24:52.275Z,20.15
2022-12-31T00:27:22.622Z,19.23
2022-12-31T00:29:50.218Z,23.13
2022-12-31T00:32:17.864Z,20.45
2022-12-31T00:34:45.498Z,19.35
2022-12-31T00:37:13.155Z,21.85
2022-12-31T00:39:40.736Z,17.52
2022-12-31T00:42:08.360Z,19.20
2022-12-31T00:44:37.336Z,23.95
2022-12-31T00:47:05.052Z,20.52
2022-12-31T00:49:32.639Z,19.38
2022-12-31T00:52:00.330Z,21.85
2022-12-31T00:54:27.929Z,23.93
2022-12-31T00:56:55.510Z,22.33
2022-12-31T00:59:23.275Z,24.83
2022-12-31T01:01:52.427Z,23.33
2022-12-31T01:04:21.729Z,20.13
2022-12-31T01:06:49.355Z,18.73
2022-12-31T01:09:17.641Z,17.58
2022-12-31T01:11:45.283Z,17.67
2022-12-31T01:14:14.218Z,19.02
2022-12-31T01:16:43.305Z,19.55
2022-12-31T01:19:15.845Z,18.75
2022-12-31T01:21:44.411Z,20.92
2022-12-31T01:24:12.570Z,21.07
2022-12-31T01:26:40.541Z,20.20
2022-12-31T01:29:09.212Z,20.35
2022-12-31T01:31:37.717Z,20.85
2022-12-31T01:34:06.325Z,14.32
2022-12-31T01:36:36.444Z,19.10
2022-12-31T01:39:06.595Z,16.23
2022-12-31T01:41:36.452Z,17.00
2022-12-31T01:44:24.734Z,14.87
2022-12-31T01:46:54.477Z,17.67
2022-12-31T01:49:23.990Z,16.98
2022-12-31T01:51:55.910Z,15.20
2022-12-31T01:54:25.396Z,18.17
2022-12-31T01:56:54.942Z,14.35
2022-12-31T01:59:23.617Z,20.80
2022-12-31T02:01:53.630Z,18.30
2022-12-31T02:04:22.987Z,18.77
2022-12-31T02:06:54.632Z,17.73
2022-12-31T02:09:22.242Z,16.35
2022-12-31T02:11:49.943Z,15.90
2022-12-31T02:14:20.159Z,16.23
2022-12-31T02:16:54.720Z,14.65
2022-12-31T02:19:50.499Z,16.38
2022-12-31T02:22:25.850Z,18.10
2022-12-31T02:25:23.006Z,17.42
2022-12-31T02:27:55.870Z,14.13
2022-12-31T02:30:25.778Z,16.58
2022-12-31T02:33:11.331Z,12.23
2022-12-31T02:35:44.993Z,13.48
2022-12-31T02:38:15.495Z,13.45
2022-12-31T02:40:43.218Z,13.68
2022-12-31T02:43:10.814Z,16.40
2022-12-31T02:45:42.876Z,17.47
2022-12-31T02:48:22.770Z,16.35
2022-12-31T02:50:58.882Z,14.65
2022-12-31T02:53:46.230Z,16.30
2022-12-31T02:56:18.154Z,15.15
2022-12-31T02:59:13.800Z,15.70
2022-12-31T03:02:02.963Z,18.77
2022-12-31T03:04:33.980Z,13.77
2022-12-31T03:07:03.284Z,13.15
2022-12-31T03:09:30.882Z,16.13
2022-12-31T03:12:16.024Z,16.13
2022-12-31T03:14:43.657Z,13.93
2022-12-31T03:17:12.654Z,15.63
2022-12-31T03:19:57.729Z,19.38
2022-12-31T03:22:28.277Z,17.00
2022-12-31T03:25:15.046Z,12.85
2022-12-31T03:27:42.640Z,15.52
2022-12-31T03:30:11.224Z,14.02
2022-12-31T03:32:40.636Z,14.20
2022-12-31T03:35:09.774Z,15.18
2022-12-31T03:37:37.392Z,11.87
2022-12-31T03:40:05.911Z,14.20
2022-12-31T03:42:33.547Z,14.45
2022-12-31T03:45:01.170Z,14.93
2022-12-31T03:47:29.083Z,14.38
2022-12-31T03:49:58.107Z,17.10
2022-12-31T03:52:25.753Z,15.30
2022-12-31T03:54:53.303Z,10.68
2022-12-31T03:57:20.937Z,15.20
2022-12-31T03:59:48.531Z,11.70
2022-12-31T04:02:16.204Z,15.75
2022-12-31T04:04:43.941Z,16.48
2022-12-31T04:07:13.090Z,15.82
2022-12-31T04:09:40.681Z,16.30
2022-12-31T04:12:08.667Z,18.23
2022-12-31T04:14:36.233Z,17.05
2022-12-31T04:17:03.892Z,14.82
2022-12-31T04:19:31.453Z,19.40
2022-12-31T04:21:59.041Z,21.92
2022-12-31T04:24:28.085Z,16.48
2022-12-31T04:26:55.662Z,21.48
2022-12-31T04:29:23.538Z,18.92
2022-12-31T04:31:51.165Z,18.80
2022-12-31T04:34:18.739Z,22.38
2022-12-31T04:36:46.317Z,16.98
2022-12-31T04:39:13.857Z,23.80
2022-12-31T04:41:42.748Z,18.98
2022-12-31T04:44:10.277Z,21.17
2022-12-31T04:46:37.937Z,18.27
2022-12-31T04:49:05.512Z,19.40
2022-12-31T04:51:33.713Z,19.52
2022-12-31T04:54:01.524Z,18.88
2022-12-31T04:56:29.701Z,18.20
2022-12-31T04:58:58.734Z,19.00
2022-12-31T05:01:27.421Z,18.63
2022-12-31T05:03:55.234Z,16.02
2022-12-31T05:06:23.893Z,12.50
2022-12-31T05:08:51.763Z,14.50
2022-12-31T05:11:19.337Z,13.25
2022-12-31T05:13:46.950Z,12.63
2022-12-31T05:16:15.929Z,9.90
2022-12-31T05:18:43.545Z,11.82
2022-12-31T05:21:12.581Z,11.17
2022-12-31T05:23:40.145Z,10.30
2022-12-31T05:26:07.675Z,9.57
2022-12-31T05:28:35.281Z,7.33
2022-12-31T05:31:02.991Z,5.45
2022-12-31T05:33:32.123Z,7.00
2022-12-31T05:35:59.691Z,6.25
2022-12-31T05:38:27.286Z,5.57
2022-12-31T05:41:00.842Z,6.83
2022-12-31T05:43:28.578Z,4.82
2022-12-31T05:45:56.254Z,5.90
2022-12-31T05:48:23.927Z,5.93
2022-12-31T05:50:52.911Z,4.28
2022-12-31T05:53:20.524Z,4.18
2022-12-31T05:55:48.463Z,4.78
2022-12-31T05:58:16.541Z,4.20
2022-12-31T06:00:46.023Z,6.10
2022-12-31T06:03:13.803Z,5.32
2022-12-31T06:05:42.733Z,4.72
2022-12-31T06:08:12.292Z,4.50
2022-12-31T06:10:40.462Z,3.88
2022-12-31T06:13:08.602Z,4.75
2022-12-31T06:15:38.619Z,3.88
2022-12-31T06:18:06.757Z,4.10
2022-12-31T06:20:34.548Z,3.60
2022-12-31T06:23:02.169Z,2.53
2022-12-31T06:25:31.134Z,3.83
2022-12-31T06:27:58.764Z,3.05
2022-12-31T06:30:26.441Z,3.42
2022-12-31T06:32:54.081Z,4.15
2022-12-31T06:35:21.739Z,2.83
2022-12-31T06:37:49.367Z,3.65
2022-12-31T06:40:17.203Z,4.38
2022-12-31T06:42:46.140Z,4.53
2022-12-31T06:45:13.726Z,4.28
2022-12-31T06:47:41.380Z,3.35
2022-12-31T06:50:09.925Z,2.00
2022-12-31T06:52:37.766Z,3.45
2022-12-31T06:55:06.606Z,2.80
2022-12-31T06:57:34.791Z,4.13
2022-12-31T07:00:05.153Z,2.80
2022-12-31T07:03:09.543Z,2.22
2022-12-31T07:05:43.230Z,3.38
2022-12-31T07:08:30.799Z,2.50
2022-12-31T07:11:03.970Z,2.50
2022-12-31T07:13:47.623Z,2.65
2022-12-31T07:16:25.624Z,1.75
2022-12-31T07:18:59.007Z,2.05
2022-12-31T07:21:33.610Z,3.25
2022-12-31T07:24:01.646Z,4.50
2022-12-31T07:26:54.228Z,3.85
2022-12-31T07:29:29.489Z,4.55
2022-12-31T07:32:03.175Z,6.47
2022-12-31T07:34:38.450Z,6.57
2022-12-31T07:37:09.342Z,8.32
2022-12-31T07:39:41.890Z,8.05
2022-12-31T07:42:16.345Z,7.20
2022-12-31T07:44:52.724Z,9.13
2022-12-31T07:47:26.471Z,10.27
2022-12-31T07:49:55.220Z,8.18
2022-12-31T07:52:23.658Z,8.70
2022-12-31T07:54:51.282Z,13.25
2022-12-31T07:57:21.025Z,11.07
2022-12-31T07:59:54.939Z,12.82
2022-12-31T08:02:33.320Z,12.63
2022-12-31T08:05:07.174Z,12.80
2022-12-31T08:07:38.421Z,11.65
2022-12-31T08:10:17.346Z,16.80
2022-12-31T08:12:46.678Z,19.40
2022-12-31T08:15:16.224Z,16.75
2022-12-31T08:17:46.018Z,16.85
2022-12-31T08:20:15.579Z,19.50
2022-12-31T08:23:05.890Z,25.52
2022-12-31T08:25:39.426Z,19.05
2022-12-31T08:28:12.660Z,18.02
2022-12-31T08:30:45.749Z,19.67
2022-12-31T08:33:20.619Z,16.13
2022-12-31T08:35:56.869Z,14.40
2022-12-31T08:38:28.841Z,16.20
2022-12-31T08:41:01.662Z,18.88
2022-12-31T08:43:37.417Z,17.40
2022-12-31T08:46:06.885Z,19.80
2022-12-31T08:48:40.317Z,14.07
2022-12-31T08:51:13.920Z,17.13
2022-12-31T08:53:42.083Z,16.15
2022-12-31T08:56:14.828Z,18.65
2022-12-31T08:58:46.236Z,20.27
2022-12-31T09:01:15.631Z,21.60
2022-12-31T09:03:58.036Z,24.85
2022-12-31T09:06:29.044Z,27.95
2022-12-31T09:09:01.710Z,24.83
2022-12-31T09:11:32.541Z,20.58
2022-12-31T09:14:11.861Z,27.83
2022-12-31T09:16:48.736Z,28.60
2022-12-31T09:19:17.753Z,28.45
2022-12-31T09:21:46.397Z,27.35
2022-12-31T09:24:14.882Z,26.30
2022-12-31T09:26:49.601Z,28.67
2022-12-31T09:29:26.774Z,25.38
2022-12-31T09:31:59.156Z,37.05
2022-12-31T09:34:31.113Z,30.45
2022-12-31T09:37:03.018Z,33.88
2022-12-31T09:39:37.726Z,32.97
2022-12-31T09:42:34.206Z,29.25
2022-12-31T09:45:36.077Z,29.70
2022-12-31T09:48:35.419Z,30.05
2022-12-31T09:51:10.382Z,27.95
2022-12-31T09:53:54.354Z,26.40
2022-12-31T09:56:27.225Z,31.73
2022-12-31T09:59:02.787Z,26.10
2022-12-31T10:01:39.478Z,30.95
2022-12-31T10:04:28.511Z,27.20
2022-12-31T10:07:05.768Z,30.25
2022-12-31T10:09:43.664Z,33.63
2022-12-31T10:12:33.486Z,25.73
2022-12-31T10:15:24.689Z,33.38
2022-12-31T10:17:59.808Z,26.60
2022-12-31T10:20:38.829Z,28.67
2022-12-31T10:23:20.366Z,30.08
2022-12-31T10:26:02.282Z,31.65
2022-12-31T10:28:32.826Z,31.52
2022-12-31T10:31:11.264Z,26.92
2022-12-31T10:33:44.533Z,31.93
2022-12-31T10:36:20.395Z,25.70
2022-12-31T10:38:58.902Z,30.17
2022-12-31T10:41:43.307Z,27.30
2022-12-31T10:44:30.730Z,27.60
2022-12-31T10:47:23.357Z,28.88
2022-12-31T10:50:08.233Z,29.33
2022-12-31T10:52:57.845Z,21.52
2022-12-31T10:55:54.565Z,23.05
2022-12-31T10:58:39.353Z,27.58
2022-12-31T11:01:11.637Z,27.45
2022-12-31T11:04:18.806Z,26.92
2022-12-31T11:07:32.289Z,25.35
2022-12-31T11:10:14.324Z,31.33
2022-12-31T11:12:57.549Z,32.10
2022-12-31T11:15:50.078Z,29.15
2022-12-31T11:18:24.474Z,27.95
2022-12-31T11:21:06.306Z,34.30
2022-12-31T11:23:40.746Z,32.40
2022-12-31T11:26:19.269Z,30.65
2022-12-31T11:29:09.916Z,28.75
2022-12-31T11:31:52.259Z,27.88
2022-12-31T11:34:31.761Z,31.60
2022-12-31T11:37:11.393Z,28.58
2022-12-31T11:39:50.565Z,28.33
2022-12-31T11:42:22.751Z,30.87
2022-12-31T11:44:56.824Z,27.60
2022-12-31T11:47:56.530Z,33.88
2022-12-31T11:50:31.857Z,29.95
2022-12-31T11:53:08.983Z,28.05
2022-12-31T11:55:44.461Z,28.83
2022-12-31T11:58:14.816Z,31.40
2022-12-31T12:00:48.434Z,30.38
2022-12-31T12:03:16.081Z,30.70
2022-12-31T12:05:43.694Z,29.00
2022-12-31T12:08:11.790Z,29.58
2022-12-31T12:10:43.731Z,22.70
2022-12-31T12:13:14.363Z,30.50
2022-12-31T12:15:46.076Z,32.50
2022-12-31T12:18:24.518Z,26.60
2022-12-31T12:20:52.341Z,31.60
2022-12-31T12:23:25.618Z,30.58
2022-12-31T12:25:53.475Z,25.35
2022-12-31T12:28:23.805Z,26.48
2022-12-31T12:30:59.069Z,28.50
2022-12-31T12:33:27.289Z,34.88
2022-12-31T12:35:54.870Z,24.50
2022-12-31T12:38:24.261Z,27.17
2022-12-31T12:40:57.149Z,26.00
2022-12-31T12:43:28.063Z,22.73
2022-12-31T12:46:00.752Z,23.73
2022-12-31T12:48:34.271Z,25.13
2022-12-31T12:51:02.150Z,22.60
2022-12-31T12:53:37.184Z,25.45
2022-12-31T12:56:12.239Z,28.48
2022-12-31T12:58:49.825Z,21.83
2022-12-31T13:01:25.485Z,21.65
2022-12-31T13:04:33.552Z,18.30
2022-12-31T13:07:02.796Z,12.80
2022-12-31T13:09:46.323Z,14.68
2022-12-31T13:12:19.507Z,13.07
2022-12-31T13:14:53.982Z,13.15
2022-12-31T13:17:54.988Z,15.13
2022-12-31T13:20:30.228Z,20.00
2022-12-31T13:23:02.030Z,24.50
2022-12-31T13:25:35.350Z,19.55
2022-12-31T13:28:05.085Z,17.77
2022-12-31T13:30:34.931Z,15.20
2022-12-31T13:33:08.430Z,10.23
2022-12-31T13:35:45.950Z,11.52
2022-12-31T13:38:19.149Z,11.88
2022-12-31T13:40:50.938Z,10.52
2022-12-31T13:43:23.492Z,11.98
2022-12-31T13:46:00.155Z,7.93
2022-12-31T13:48:33.560Z,5.87
2022-12-31T13:51:04.674Z,8.35
2022-12-31T13:53:37.294Z,7.37
2022-12-31T13:56:07.111Z,12.57
2022-12-31T13:58:38.397Z,13.77
2022-12-31T14:01:11.956Z,14.90
2022-12-31T14:03:45.370Z,16.58
2022-12-31T14:06:18.884Z,17.33
2022-12-31T14:08:46.682Z,20.70
2022-12-31T14:11:19.529Z,22.88
2022-12-31T14:13:59.921Z,23.02
2022-12-31T14:16:35.825Z,25.55
2022-12-31T14:19:08.964Z,23.17
2022-12-31T14:21:43.343Z,23.03
2022-12-31T14:24:14.868Z,22.73
2022-12-31T14:26:45.308Z,25.40
2022-12-31T14:29:23.844Z,28.15
2022-12-31T14:32:19.468Z,30.55
2022-12-31T14:34:54.194Z,32.42
2022-12-31T14:37:26.667Z,29.55
2022-12-31T14:39:59.350Z,29.27
2022-12-31T14:42:32.797Z,28.98
2022-12-31T14:45:08.343Z,27.65
2022-12-31T14:47:44.207Z,30.13
2022-12-31T14:50:15.420Z,30.25
2022-12-31T14:52:51.661Z,27.02
2022-12-31T14:55:28.485Z,31.70
2022-12-31T15:00:53.469Z,31.73
2022-12-31T15:03:26.626Z,35.63
2022-12-31T15:06:07.501Z,35.00
2022-12-31T15:08:42.890Z,37.45
2022-12-31T15:11:27.166Z,35.75
2022-12-31T15:14:23.733Z,41.15
2022-12-31T15:16:56.627Z,44.40
2022-12-31T15:19:59.493Z,37.80
2022-12-31T15:22:37.650Z,44.50
2022-12-31T15:25:18.438Z,40.78
2022-12-31T15:27:47.375Z,37.63
2022-12-31T15:30:32.750Z,41.25
2022-12-31T15:33:03.905Z,34.90
2022-12-31T15:35:33.249Z,43.58
2022-12-31T15:38:03.815Z,40.13
2022-12-31T15:40:31.831Z,38.78
2022-12-31T15:43:03.500Z,29.90
2022-12-31T15:45:34.545Z,38.17
2022-12-31T15:48:04.437Z,37.88
2022-12-31T15:50:32.236Z,37.95
2022-12-31T15:53:03.809Z,33.95
2022-12-31T15:55:37.435Z,38.17
2022-12-31T15:58:07.541Z,29.60
2022-12-31T16:00:46.708Z,41.47
2022-12-31T16:03:21.186Z,30.70
2022-12-31T16:05:49.085Z,32.05
2022-12-31T16:08:21.419Z,35.10
2022-12-31T16:10:49.249Z,31.77
2022-12-31T16:13:21.679Z,35.72
2022-12-31T16:15:50.412Z,28.07
2022-12-31T16:18:22.865Z,30.90
2022-12-31T16:20:51.893Z,117.10
2022-12-31T16:23:27.418Z,37.07
2022-12-31T16:25:58.343Z,28.25
2022-12-31T16:28:30.451Z,30.10
2022-12-31T16:31:01.321Z,24.15
2022-12-31T16:33:28.977Z,26.80
2022-12-31T16:35:57.935Z,26.65
2022-12-31T16:38:34.171Z,26.88
2022-12-31T16:41:10.072Z,31.98
2022-12-31T16:43:39.539Z,27.13
2022-12-31T16:46:11.641Z,20.92
2022-12-31T16:48:39.299Z,23.67
2022-12-31T16:51:07.200Z,21.33
2022-12-31T16:53:38.247Z,21.42
2022-12-31T16:56:08.708Z,21.38
2022-12-31T16:58:38.769Z,21.80
2022-12-31T17:01:12.194Z,17.95
2022-12-31T17:03:43.510Z,18.00
2022-12-31T17:06:16.078Z,25.02
2022-12-31T17:08:46.969Z,42.17
2022-12-31T17:11:24.169Z,39.45
2022-12-31T17:13:57.587Z,28.38
2022-12-31T17:16:25.843Z,24.17
2022-12-31T17:18:53.749Z,22.63
2022-12-31T17:21:22.194Z,27.33
2022-12-31T17:23:55.028Z,23.02
2022-12-31T17:26:25.174Z,24.45
2022-12-31T17:28:53.709Z,31.00
2022-12-31T17:31:31.131Z,23.77
2022-12-31T17:34:21.140Z,22.13
2022-12-31T17:36:57.326Z,23.88
2022-12-31T17:39:27.141Z,19.60
2022-12-31T17:41:57.558Z,23.13
2022-12-31T17:44:28.017Z,24.23
2022-12-31T17:46:55.977Z,21.17
2022-12-31T17:49:27.172Z,19.50
2022-12-31T17:51:54.858Z,15.00
2022-12-31T17:54:22.445Z,19.05
2022-12-31T17:56:52.711Z,17.90
2022-12-31T17:59:22.373Z,17.70
2022-12-31T18:01:50.029Z,19.33
2022-12-31T18:04:20.610Z,16.17
2022-12-31T18:06:48.169Z,18.15
2022-12-31T18:09:16.404Z,17.60
2022-12-31T18:11:44.118Z,17.10
2022-12-31T18:14:14.802Z,16.48
2022-12-31T18:16:42.499Z,17.17
2022-12-31T18:19:23.459Z,17.83
2022-12-31T18:22:01.651Z,15.20
2022-12-31T18:24:29.234Z,16.33
2022-12-31T18:26:56.809Z,13.70
2022-12-31T18:29:25.827Z,14.65
2022-12-31T18:31:53.940Z,13.43
2022-12-31T18:34:21.588Z,14.55
2022-12-31T18:36:49.166Z,14.27
2022-12-31T18:39:16.704Z,13.80
2022-12-31T18:41:49.583Z,11.93
2022-12-31T18:44:17.695Z,13.10
2022-12-31T18:46:46.620Z,10.50
2022-12-31T18:49:14.191Z,13.85
2022-12-31T18:51:41.767Z,11.88
2022-12-31T18:54:12.349Z,12.10
2022-12-31T18:56:46.512Z,12.63
2022-12-31T18:59:15.259Z,15.13
2022-12-31T19:01:42.935Z,14.70
2022-12-31T19:04:15.344Z,13.55
2022-12-31T19:06:43.650Z,13.20
2022-12-31T19:09:30.720Z,12.45
2022-12-31T19:12:00.312Z,11.80
2022-12-31T19:14:28.786Z,12.90
2022-12-31T19:19:27.552Z,12.50
2022-12-31T19:21:55.092Z,14.85
2022-12-31T19:24:26.322Z,9.77
2022-12-31T19:26:54.590Z,12.07
2022-12-31T19:29:24.026Z,10.85
2022-12-31T19:31:52.004Z,12.20
2022-12-31T19:34:19.590Z,11.65
2022-12-31T19:36:48.459Z,14.02
2022-12-31T19:39:17.653Z,13.25
2022-12-31T19:41:45.788Z,11.00
2022-12-31T19:44:15.675Z,15.50
2022-12-31T19:46:43.252Z,14.00
2022-12-31T19:49:11.555Z,14.70
2022-12-31T19:51:39.167Z,17.00
2022-12-31T19:54:11.711Z,18.00
2022-12-31T19:56:39.239Z,43.40
2022-12-31T19:59:07.105Z,18.17
2022-12-31T20:01:34.929Z,18.65
2022-12-31T20:04:02.952Z,26.60
2022-12-31T20:06:30.542Z,22.65
2022-12-31T20:08:58.132Z,31.90
